createdAt,value
2018-05-09T00:00:03.259Z,993.85
2018-05-09T00:00:43.765Z,993.86
2018-05-09T00:01:24.244Z,993.83
2018-05-09T00:02:04.746Z,993.9
2018-05-09T00:02:45.246Z,993.9
2018-05-09T00:03:25.715Z,993.92
2018-05-09T00:04:06.180Z,993.89
2018-05-09T00:04:46.701Z,993.89
2018-05-09T00:05:27.240Z,993.86
2018-05-09T00:06:07.700Z,993.84
2018-05-09T00:06:48.166Z,993.79
2018-05-09T00:07:28.643Z,993.8
2018-05-09T00:08:09.169Z,993.73
2018-05-09T00:08:49.659Z,993.76
2018-05-09T00:09:30.193Z,993.8
2018-05-09T00:10:10.635Z,993.81
2018-05-09T00:10:51.119Z,993.81
2018-05-09T00:11:31.649Z,993.82
2018-05-09T00:12:12.127Z,993.81
2018-05-09T00:12:52.596Z,993.78
2018-05-09T00:13:33.096Z,993.8
2018-05-09T00:14:13.591Z,993.79
2018-05-09T00:14:54.063Z,993.78
2018-05-09T00:15:34.554Z,993.78
2018-05-09T00:16:15.054Z,993.78
2018-05-09T00:16:55.560Z,993.8
2018-05-09T00:17:36.025Z,993.8
2018-05-09T00:18:16.526Z,993.78
2018-05-09T00:18:57.014Z,993.82
2018-05-09T00:19:37.509Z,993.8
2018-05-09T00:20:17.982Z,993.79
2018-05-09T00:20:58.496Z,993.76
2018-05-09T00:21:38.987Z,993.81
2018-05-09T00:22:19.470Z,993.72
2018-05-09T00:22:59.981Z,993.73
2018-05-09T00:23:40.465Z,993.71
2018-05-09T00:24:20.968Z,993.7
2018-05-09T00:25:01.455Z,993.72
2018-05-09T00:25:41.917Z,993.69
2018-05-09T00:26:22.386Z,993.7
2018-05-09T00:27:02.907Z,993.7
2018-05-09T00:27:43.413Z,993.68
2018-05-09T00:28:23.917Z,993.67
2018-05-09T00:29:04.391Z,993.7
2018-05-09T00:29:44.874Z,993.7
2018-05-09T00:30:25.365Z,993.72
2018-05-09T00:31:05.848Z,993.68
2018-05-09T00:31:46.346Z,993.72
2018-05-09T00:32:26.847Z,993.7
2018-05-09T00:33:07.332Z,993.68
2018-05-09T00:33:47.835Z,993.68
2018-05-09T00:34:28.301Z,993.69
2018-05-09T00:35:08.811Z,993.69
2018-05-09T00:35:49.317Z,993.73
2018-05-09T00:36:29.774Z,993.7
2018-05-09T00:37:10.255Z,993.67
2018-05-09T00:37:50.728Z,993.7
2018-05-09T00:38:31.236Z,993.7
2018-05-09T00:39:11.683Z,993.71
2018-05-09T00:39:52.174Z,993.69
2018-05-09T00:40:32.639Z,993.69
2018-05-09T00:41:13.139Z,993.65
2018-05-09T00:41:53.622Z,993.67
2018-05-09T00:42:34.143Z,993.68
2018-05-09T00:43:14.605Z,993.61
2018-05-09T00:43:55.108Z,993.63
2018-05-09T00:44:35.619Z,993.67
2018-05-09T00:45:16.076Z,993.67
2018-05-09T00:45:56.586Z,993.64
2018-05-09T00:46:37.080Z,993.67
2018-05-09T00:47:17.634Z,993.67
2018-05-09T00:47:58.060Z,993.63
2018-05-09T00:48:38.534Z,993.62
2018-05-09T00:49:19.036Z,993.7
2018-05-09T00:49:59.527Z,993.69
2018-05-09T00:50:40.035Z,993.68
2018-05-09T00:51:20.535Z,993.69
2018-05-09T00:52:01.027Z,993.65
2018-05-09T00:52:41.512Z,993.62
2018-05-09T00:53:21.994Z,993.63
2018-05-09T00:54:02.478Z,993.62
2018-05-09T00:54:42.953Z,993.61
2018-05-09T00:55:23.476Z,993.62
2018-05-09T00:56:03.947Z,993.58
2018-05-09T00:56:44.415Z,993.58
2018-05-09T00:57:24.886Z,993.59
2018-05-09T00:58:05.389Z,993.61
2018-05-09T00:58:45.894Z,993.56
2018-05-09T00:59:26.417Z,993.6
2018-05-09T01:00:06.876Z,993.59
2018-05-09T01:00:47.373Z,993.64
2018-05-09T01:01:27.881Z,993.62
2018-05-09T01:02:08.365Z,993.65
2018-05-09T01:02:48.885Z,993.65
2018-05-09T01:03:29.376Z,993.64
2018-05-09T01:04:09.880Z,993.61
2018-05-09T01:04:50.370Z,993.64
2018-05-09T01:05:30.857Z,993.61
2018-05-09T01:06:11.372Z,993.6
2018-05-09T01:06:51.898Z,993.6
2018-05-09T01:07:32.362Z,993.61
2018-05-09T01:08:12.820Z,993.59
2018-05-09T01:08:53.318Z,993.6
2018-05-09T01:09:33.820Z,993.62
2018-05-09T01:10:14.318Z,993.63
2018-05-09T01:10:54.811Z,993.61
2018-05-09T01:11:35.256Z,993.61
2018-05-09T01:12:15.791Z,993.62
2018-05-09T01:12:56.278Z,993.59
2018-05-09T01:13:36.761Z,993.61
2018-05-09T01:14:17.242Z,993.6
2018-05-09T01:14:57.761Z,993.61
2018-05-09T01:15:38.250Z,993.61
2018-05-09T01:16:18.754Z,993.62
2018-05-09T01:16:59.254Z,993.62
2018-05-09T01:17:39.730Z,993.63
2018-05-09T01:18:20.236Z,993.64
2018-05-09T01:19:00.735Z,993.62
2018-05-09T01:19:41.245Z,993.62
2018-05-09T01:20:21.714Z,993.65
2018-05-09T01:21:02.161Z,993.66
2018-05-09T01:21:42.623Z,993.64
2018-05-09T01:22:23.130Z,993.64
2018-05-09T01:23:03.593Z,993.63
2018-05-09T01:23:44.142Z,993.71
2018-05-09T01:24:24.579Z,993.64
2018-05-09T01:25:05.081Z,993.63
2018-05-09T01:25:45.597Z,993.66
2018-05-09T01:26:26.102Z,993.69
2018-05-09T01:27:06.563Z,993.66
2018-05-09T01:27:47.092Z,993.6
2018-05-09T01:28:27.577Z,993.62
2018-05-09T01:29:08.062Z,993.63
2018-05-09T01:29:48.541Z,993.6
2018-05-09T01:30:29.068Z,993.61
2018-05-09T01:31:09.517Z,993.59
2018-05-09T01:31:50.016Z,993.59
2018-05-09T01:32:30.504Z,993.6
2018-05-09T01:33:11.036Z,993.64
2018-05-09T01:33:51.510Z,993.57
2018-05-09T01:34:31.974Z,993.58
2018-05-09T01:35:12.508Z,993.58
2018-05-09T01:35:52.951Z,993.55
2018-05-09T01:36:33.464Z,993.54
2018-05-09T01:37:13.951Z,993.55
2018-05-09T01:37:54.493Z,993.51
2018-05-09T01:38:34.988Z,993.55
2018-05-09T01:39:15.469Z,993.57
2018-05-09T01:39:55.966Z,993.52
2018-05-09T01:40:36.517Z,993.53
2018-05-09T01:41:16.962Z,993.48
2018-05-09T01:41:57.451Z,993.57
2018-05-09T01:42:37.947Z,993.51
2018-05-09T01:43:18.415Z,993.54
2018-05-09T01:43:58.889Z,993.55
2018-05-09T01:44:39.383Z,993.53
2018-05-09T01:45:19.904Z,993.52
2018-05-09T01:46:00.356Z,993.53
2018-05-09T01:46:40.859Z,993.53
2018-05-09T01:47:21.339Z,993.48
2018-05-09T01:48:01.843Z,993.5
2018-05-09T01:48:42.313Z,993.56
2018-05-09T01:49:22.806Z,993.48
2018-05-09T01:50:03.320Z,993.48
2018-05-09T01:50:43.852Z,993.5
2018-05-09T01:51:24.302Z,993.47
2018-05-09T01:52:04.828Z,993.49
2018-05-09T01:52:45.302Z,993.47
2018-05-09T01:53:25.796Z,993.53
2018-05-09T01:54:06.299Z,993.47
2018-05-09T01:54:46.804Z,993.51
2018-05-09T01:55:27.284Z,993.51
2018-05-09T01:56:07.772Z,993.5
2018-05-09T01:56:48.254Z,993.47
2018-05-09T01:57:28.754Z,993.48
2018-05-09T01:58:09.238Z,993.47
2018-05-09T01:58:49.708Z,993.5
2018-05-09T01:59:30.226Z,993.48
2018-05-09T02:00:10.693Z,993.53
2018-05-09T02:00:51.210Z,993.53
2018-05-09T02:01:31.671Z,993.52
2018-05-09T02:02:12.169Z,993.55
2018-05-09T02:02:52.661Z,993.54
2018-05-09T02:03:33.156Z,993.49
2018-05-09T02:04:13.629Z,993.53
2018-05-09T02:04:54.170Z,993.54
2018-05-09T02:05:34.599Z,993.54
2018-05-09T02:06:15.101Z,993.53
2018-05-09T02:06:55.592Z,993.55
2018-05-09T02:07:36.100Z,993.57
2018-05-09T02:08:16.578Z,993.55
2018-05-09T02:08:57.100Z,993.56
2018-05-09T02:09:37.547Z,993.56
2018-05-09T02:10:18.005Z,993.56
2018-05-09T02:10:58.505Z,993.57
2018-05-09T02:11:38.989Z,993.56
2018-05-09T02:12:19.484Z,993.56
2018-05-09T02:12:59.946Z,993.59
2018-05-09T02:13:40.437Z,993.56
2018-05-09T02:14:20.909Z,993.57
2018-05-09T02:15:01.386Z,993.61
2018-05-09T02:15:41.855Z,993.62
2018-05-09T02:16:22.354Z,993.61
2018-05-09T02:17:02.869Z,993.58
2018-05-09T02:17:43.365Z,993.61
2018-05-09T02:18:23.806Z,993.61
2018-05-09T02:19:04.310Z,993.61
2018-05-09T02:19:44.825Z,993.62
2018-05-09T02:20:25.310Z,993.64
2018-05-09T02:21:05.826Z,993.66
2018-05-09T02:21:46.295Z,993.64
2018-05-09T02:22:26.779Z,993.65
2018-05-09T02:23:07.311Z,993.63
2018-05-09T02:23:47.809Z,993.64
2018-05-09T02:24:28.311Z,993.7
2018-05-09T02:25:08.747Z,993.64
2018-05-09T02:25:49.220Z,993.71
2018-05-09T02:26:29.721Z,993.69
2018-05-09T02:27:10.184Z,993.7
2018-05-09T02:27:50.677Z,993.72
2018-05-09T02:28:31.179Z,993.72
2018-05-09T02:29:11.676Z,993.77
2018-05-09T02:29:52.128Z,993.74
2018-05-09T02:30:32.630Z,993.76
2018-05-09T02:31:13.266Z,993.81
2018-05-09T02:31:53.608Z,993.75
2018-05-09T02:32:34.155Z,993.78
2018-05-09T02:33:14.650Z,993.76
2018-05-09T02:33:55.123Z,993.8
2018-05-09T02:34:35.616Z,993.81
2018-05-09T02:35:16.115Z,993.78
2018-05-09T02:35:56.623Z,993.8
2018-05-09T02:36:37.116Z,993.77
2018-05-09T02:37:17.637Z,993.79
2018-05-09T02:37:58.160Z,993.8
2018-05-09T02:38:38.566Z,993.8
2018-05-09T02:39:19.076Z,993.74
2018-05-09T02:39:59.587Z,993.78
2018-05-09T02:40:40.086Z,993.73
2018-05-09T02:41:20.562Z,993.78
2018-05-09T02:42:01.107Z,993.76
2018-05-09T02:42:41.577Z,993.73
2018-05-09T02:43:22.094Z,993.75
2018-05-09T02:44:02.563Z,993.75
2018-05-09T02:44:43.133Z,993.72
2018-05-09T02:45:23.560Z,993.8
2018-05-09T02:46:04.040Z,993.78
2018-05-09T02:46:44.561Z,993.82
2018-05-09T02:47:24.989Z,993.78
2018-05-09T02:48:05.457Z,993.77
2018-05-09T02:48:45.973Z,993.79
2018-05-09T02:49:26.573Z,993.81
2018-05-09T02:50:06.911Z,993.82
2018-05-09T02:50:47.426Z,993.83
2018-05-09T02:51:27.903Z,993.87
2018-05-09T02:52:08.363Z,993.83
2018-05-09T02:52:49.012Z,993.85
2018-05-09T02:53:29.415Z,993.85
2018-05-09T02:54:09.905Z,993.84
2018-05-09T02:54:50.423Z,993.87
2018-05-09T02:55:30.891Z,993.85
2018-05-09T02:56:11.370Z,993.82
2018-05-09T02:56:51.855Z,993.85
2018-05-09T02:57:32.361Z,993.77
2018-05-09T02:58:12.859Z,993.79
2018-05-09T02:58:53.345Z,993.74
2018-05-09T02:59:33.804Z,993.77
2018-05-09T03:00:14.286Z,993.75
2018-05-09T03:00:54.805Z,993.76
2018-05-09T03:01:35.278Z,993.8
2018-05-09T03:02:15.741Z,993.77
2018-05-09T03:02:56.247Z,993.84
2018-05-09T03:03:36.727Z,993.84
2018-05-09T03:04:17.220Z,993.75
2018-05-09T03:04:57.747Z,993.72
2018-05-09T03:05:38.198Z,993.77
2018-05-09T03:06:18.693Z,993.74
2018-05-09T03:06:59.201Z,993.8
2018-05-09T03:07:39.685Z,993.79
2018-05-09T03:08:20.192Z,993.79
2018-05-09T03:09:00.684Z,993.82
2018-05-09T03:09:41.142Z,993.83
2018-05-09T03:10:21.684Z,993.79
2018-05-09T03:11:02.128Z,993.79
2018-05-09T03:11:42.641Z,993.74
2018-05-09T03:12:23.163Z,993.75
2018-05-09T03:13:03.609Z,993.76
2018-05-09T03:13:44.094Z,993.77
2018-05-09T03:14:24.580Z,993.77
2018-05-09T03:15:05.070Z,993.8
2018-05-09T03:15:45.612Z,993.79
2018-05-09T03:16:26.064Z,993.75
2018-05-09T03:17:06.544Z,993.71
2018-05-09T03:17:47.075Z,993.72
2018-05-09T03:18:27.529Z,993.68
2018-05-09T03:19:08.024Z,993.7
2018-05-09T03:19:48.501Z,993.73
2018-05-09T03:20:29.076Z,993.69
2018-05-09T03:21:09.552Z,993.69
2018-05-09T03:21:50.015Z,993.67
2018-05-09T03:22:30.509Z,993.65
2018-05-09T03:23:10.973Z,993.72
2018-05-09T03:23:51.496Z,993.69
2018-05-09T03:24:31.994Z,993.66
2018-05-09T03:25:12.454Z,993.69
2018-05-09T03:25:52.917Z,993.6
2018-05-09T03:26:33.415Z,993.61
2018-05-09T03:27:13.920Z,993.63
2018-05-09T03:27:54.408Z,993.62
2018-05-09T03:28:34.922Z,993.69
2018-05-09T03:29:15.392Z,993.66
2018-05-09T03:29:55.881Z,993.66
2018-05-09T03:30:36.380Z,993.63
2018-05-09T03:31:16.855Z,993.66
2018-05-09T03:31:57.334Z,993.67
2018-05-09T03:32:37.834Z,993.7
2018-05-09T03:33:18.358Z,993.74
2018-05-09T03:33:58.845Z,993.74
2018-05-09T03:34:39.306Z,993.75
2018-05-09T03:35:19.842Z,993.79
2018-05-09T03:36:00.292Z,993.76
2018-05-09T03:36:40.786Z,993.8
2018-05-09T03:37:21.339Z,993.82
2018-05-09T03:38:01.766Z,993.82
2018-05-09T03:38:42.244Z,993.87
2018-05-09T03:39:22.765Z,993.84
2018-05-09T03:40:03.227Z,993.88
2018-05-09T03:40:43.708Z,993.92
2018-05-09T03:41:24.170Z,993.9
2018-05-09T03:42:04.678Z,993.93
2018-05-09T03:42:45.193Z,993.93
2018-05-09T03:43:25.677Z,993.92
2018-05-09T03:44:06.169Z,993.96
2018-05-09T03:44:46.624Z,993.99
2018-05-09T03:45:27.144Z,993.89
2018-05-09T03:46:07.710Z,993.98
2018-05-09T03:46:48.160Z,993.94
2018-05-09T03:47:28.632Z,993.93
2018-05-09T03:48:09.105Z,993.94
2018-05-09T03:48:49.581Z,993.93
2018-05-09T03:49:30.825Z,993.91
2018-05-09T03:50:11.302Z,993.89
2018-05-09T03:50:51.770Z,993.9
2018-05-09T03:51:33.165Z,993.88
2018-05-09T03:52:13.749Z,993.91
2018-05-09T03:52:54.248Z,993.88
2018-05-09T03:53:37.649Z,993.85
2018-05-09T03:54:17.572Z,993.9
2018-05-09T03:54:59.647Z,993.88
2018-05-09T03:55:40.158Z,993.89
2018-05-09T03:56:21.001Z,993.88
2018-05-09T03:57:04.163Z,993.9
2018-05-09T03:57:43.729Z,993.92
2018-05-09T03:58:25.141Z,993.89
2018-05-09T03:59:05.598Z,993.92
2018-05-09T03:59:46.098Z,993.86
2018-05-09T04:00:26.575Z,993.87
2018-05-09T04:01:07.092Z,993.88
2018-05-09T04:01:48.159Z,993.8
2018-05-09T04:02:28.069Z,993.86
2018-05-09T04:03:09.158Z,993.86
2018-05-09T04:03:49.658Z,993.87
2018-05-09T04:04:30.204Z,993.95
2018-05-09T04:05:10.755Z,993.93
2018-05-09T04:05:51.933Z,993.95
2018-05-09T04:06:33.156Z,993.93
2018-05-09T04:07:12.964Z,993.94
2018-05-09T04:07:54.356Z,993.97
2018-05-09T04:08:34.816Z,993.99
2018-05-09T04:09:15.324Z,993.95
2018-05-09T04:09:55.837Z,993.97
2018-05-09T04:10:36.300Z,993.95
2018-05-09T04:11:16.842Z,993.99
2018-05-09T04:11:57.299Z,993.98
2018-05-09T04:12:37.749Z,993.96
2018-05-09T04:13:18.304Z,993.98
2018-05-09T04:13:58.750Z,993.98
2018-05-09T04:14:39.279Z,994
2018-05-09T04:15:19.743Z,993.98
2018-05-09T04:16:00.212Z,993.96
2018-05-09T04:16:40.714Z,993.98
2018-05-09T04:17:21.196Z,993.98
2018-05-09T04:18:01.803Z,993.97
2018-05-09T04:18:42.245Z,993.97
2018-05-09T04:19:22.736Z,993.97
2018-05-09T04:20:03.203Z,993.97
2018-05-09T04:20:43.735Z,993.95
2018-05-09T04:21:24.138Z,993.99
2018-05-09T04:22:04.693Z,993.99
2018-05-09T04:22:45.151Z,993.94
2018-05-09T04:23:25.634Z,993.99
2018-05-09T04:24:06.127Z,994
2018-05-09T04:24:46.638Z,994.04
2018-05-09T04:25:27.082Z,994.04
2018-05-09T04:26:07.599Z,994.02
2018-05-09T04:26:48.082Z,994.04
2018-05-09T04:27:28.544Z,994.05
2018-05-09T04:28:09.063Z,994.03
2018-05-09T04:28:49.545Z,994.07
2018-05-09T04:29:30.015Z,994.11
2018-05-09T04:30:10.519Z,994.1
2018-05-09T04:30:50.993Z,994.1
2018-05-09T04:31:31.494Z,994.08
2018-05-09T04:32:11.994Z,994.1
2018-05-09T04:32:52.482Z,994.08
2018-05-09T04:33:32.972Z,994.09
2018-05-09T04:34:13.431Z,994.11
2018-05-09T04:34:53.951Z,994.12
2018-05-09T04:35:34.445Z,994.12
2018-05-09T04:36:14.956Z,994.13
2018-05-09T04:36:55.412Z,994.15
2018-05-09T04:37:35.905Z,994.11
2018-05-09T04:38:16.425Z,994.14
2018-05-09T04:38:56.905Z,994.19
2018-05-09T04:39:37.403Z,994.19
2018-05-09T04:40:19.334Z,994.18
2018-05-09T04:40:59.840Z,994.17
2018-05-09T04:41:40.343Z,994.15
2018-05-09T04:42:20.844Z,994.16
2018-05-09T04:43:01.279Z,994.19
2018-05-09T04:43:41.813Z,994.18
2018-05-09T04:44:22.275Z,994.17
2018-05-09T04:45:02.791Z,994.15
2018-05-09T04:45:43.304Z,994.18
2018-05-09T04:46:23.780Z,994.17
2018-05-09T04:47:04.346Z,994.18
2018-05-09T04:47:44.819Z,994.17
2018-05-09T04:48:25.312Z,994.18
2018-05-09T04:49:05.882Z,994.23
2018-05-09T04:49:46.319Z,994.2
2018-05-09T04:50:26.817Z,994.21
2018-05-09T04:51:07.327Z,994.24
2018-05-09T04:51:47.760Z,994.19
2018-05-09T04:52:28.256Z,994.19
2018-05-09T04:53:08.775Z,994.27
2018-05-09T04:53:49.275Z,994.28
2018-05-09T04:54:29.807Z,994.23
2018-05-09T04:55:10.313Z,994.28
2018-05-09T04:55:50.820Z,994.23
2018-05-09T04:56:31.351Z,994.27
2018-05-09T04:57:11.814Z,994.25
2018-05-09T04:57:52.336Z,994.23
2018-05-09T04:58:32.824Z,994.25
2018-05-09T04:59:13.354Z,994.28
2018-05-09T04:59:53.805Z,994.22
2018-05-09T05:00:34.320Z,994.23
2018-05-09T05:01:14.795Z,994.25
2018-05-09T05:01:55.324Z,994.21
2018-05-09T05:02:35.825Z,994.26
2018-05-09T05:03:16.304Z,994.26
2018-05-09T05:03:56.812Z,994.2
2018-05-09T05:04:37.340Z,994.26
2018-05-09T05:05:17.811Z,994.25
2018-05-09T05:05:58.313Z,994.26
2018-05-09T05:06:38.826Z,994.21
2018-05-09T05:07:19.267Z,994.2
2018-05-09T05:07:59.751Z,994.24
2018-05-09T05:08:40.262Z,994.2
2018-05-09T05:09:20.857Z,994.18
2018-05-09T05:10:01.323Z,994.23
2018-05-09T05:10:41.843Z,994.23
2018-05-09T05:11:22.359Z,994.15
2018-05-09T05:12:02.886Z,994.21
2018-05-09T05:12:43.391Z,994.2
2018-05-09T05:13:23.909Z,994.2
2018-05-09T05:14:04.435Z,994.18
2018-05-09T05:14:44.971Z,994.22
2018-05-09T05:15:25.388Z,994.21
2018-05-09T05:16:05.918Z,994.26
2018-05-09T05:16:46.402Z,994.2
2018-05-09T05:17:26.947Z,994.23
2018-05-09T05:18:07.503Z,994.22
2018-05-09T05:18:47.992Z,994.17
2018-05-09T05:19:28.531Z,994.16
2018-05-09T05:20:09.035Z,994.16
2018-05-09T05:20:49.559Z,994.14
2018-05-09T05:21:30.076Z,994.16
2018-05-09T05:22:10.591Z,994.18
2018-05-09T05:22:51.111Z,994.2
2018-05-09T05:23:31.609Z,994.2
2018-05-09T05:24:12.258Z,994.17
2018-05-09T05:24:52.639Z,994.22
2018-05-09T05:25:33.193Z,994.26
2018-05-09T05:26:13.644Z,994.22
2018-05-09T05:26:54.179Z,994.23
2018-05-09T05:27:34.679Z,994.24
2018-05-09T05:28:15.188Z,994.21
2018-05-09T05:28:55.704Z,994.16
2018-05-09T05:29:36.254Z,994.18
2018-05-09T05:30:16.835Z,994.18
2018-05-09T05:30:57.341Z,994.2
2018-05-09T05:31:37.821Z,994.15
2018-05-09T05:32:18.320Z,994.15
2018-05-09T05:32:58.818Z,994.17
2018-05-09T05:33:39.313Z,994.18
2018-05-09T05:34:19.809Z,994.2
2018-05-09T05:35:00.351Z,994.19
2018-05-09T05:35:40.875Z,994.15
2018-05-09T05:36:21.473Z,994.24
2018-05-09T05:37:01.974Z,994.23
2018-05-09T05:37:42.495Z,994.22
2018-05-09T05:38:22.984Z,994.25
2018-05-09T05:39:03.684Z,994.26
2018-05-09T05:39:44.177Z,994.26
2018-05-09T05:40:24.729Z,994.24
2018-05-09T05:41:05.232Z,994.26
2018-05-09T05:41:45.766Z,994.29
2018-05-09T05:42:26.314Z,994.35
2018-05-09T05:43:06.815Z,994.34
2018-05-09T05:43:47.311Z,994.36
2018-05-09T05:44:27.888Z,994.34
2018-05-09T05:45:08.451Z,994.36
2018-05-09T05:45:48.852Z,994.36
2018-05-09T05:46:29.384Z,994.37
2018-05-09T05:47:09.977Z,994.36
2018-05-09T05:47:50.485Z,994.33
2018-05-09T05:48:31.013Z,994.33
2018-05-09T05:49:11.550Z,994.34
2018-05-09T05:49:52.117Z,994.33
2018-05-09T05:50:32.637Z,994.32
2018-05-09T05:51:13.167Z,994.35
2018-05-09T05:51:53.668Z,994.33
2018-05-09T05:52:34.193Z,994.33
2018-05-09T05:53:14.692Z,994.31
2018-05-09T05:53:55.213Z,994.37
2018-05-09T05:54:35.738Z,994.33
2018-05-09T05:55:16.279Z,994.36
2018-05-09T05:55:56.855Z,994.29
2018-05-09T05:56:37.336Z,994.37
2018-05-09T05:57:17.879Z,994.3
2018-05-09T05:57:58.429Z,994.33
2018-05-09T05:58:38.986Z,994.34
2018-05-09T06:00:32.079Z,994.4
2018-05-09T06:01:12.596Z,994.34
2018-05-09T06:01:53.123Z,994.34
2018-05-09T06:02:33.655Z,994.37
2018-05-09T06:03:14.197Z,994.37
2018-05-09T06:03:54.722Z,994.39
2018-05-09T06:04:35.249Z,994.37
2018-05-09T06:05:15.770Z,994.42
2018-05-09T06:05:56.303Z,994.41
2018-05-09T06:06:36.819Z,994.41
2018-05-09T06:07:17.337Z,994.44
2018-05-09T06:07:57.923Z,994.43
2018-05-09T06:08:38.428Z,994.41
2018-05-09T06:09:19.668Z,994.42
2018-05-09T06:10:00.135Z,994.43
2018-05-09T06:10:40.821Z,994.45
2018-05-09T06:11:21.457Z,994.46
2018-05-09T06:12:01.968Z,994.47
2018-05-09T06:12:42.599Z,994.44
2018-05-09T06:13:23.063Z,994.4
2018-05-09T06:14:03.597Z,994.42
2018-05-09T06:14:44.156Z,994.41
2018-05-09T06:15:24.615Z,994.37
2018-05-09T06:16:05.158Z,994.41
2018-05-09T06:16:45.605Z,994.43
2018-05-09T06:17:26.104Z,994.43
2018-05-09T06:18:06.577Z,994.46
2018-05-09T06:18:47.120Z,994.45
2018-05-09T06:19:27.588Z,994.49
2018-05-09T06:20:08.117Z,994.45
2018-05-09T06:20:48.658Z,994.41
2018-05-09T06:21:29.161Z,994.41
2018-05-09T06:22:09.636Z,994.41
2018-05-09T06:22:50.179Z,994.46
2018-05-09T06:23:30.700Z,994.47
2018-05-09T06:24:11.263Z,994.49
2018-05-09T06:24:51.741Z,994.47
2018-05-09T06:25:32.273Z,994.47
2018-05-09T06:26:12.760Z,994.45
2018-05-09T06:26:53.275Z,994.49
2018-05-09T06:27:33.796Z,994.5
2018-05-09T06:28:14.262Z,994.53
2018-05-09T06:28:54.797Z,994.54
2018-05-09T06:29:35.271Z,994.47
2018-05-09T06:30:15.780Z,994.53
2018-05-09T06:30:56.261Z,994.5
2018-05-09T06:31:36.801Z,994.51
2018-05-09T06:32:17.301Z,994.43
2018-05-09T06:32:57.814Z,994.47
2018-05-09T06:33:38.285Z,994.5
2018-05-09T06:34:18.805Z,994.52
2018-05-09T06:34:59.297Z,994.51
2018-05-09T06:35:39.840Z,994.53
2018-05-09T06:36:20.505Z,994.5
2018-05-09T06:37:01.033Z,994.5
2018-05-09T06:37:41.601Z,994.46
2018-05-09T06:38:22.029Z,994.49
2018-05-09T06:39:02.494Z,994.46
2018-05-09T06:39:43.004Z,994.47
2018-05-09T06:40:23.457Z,994.49
2018-05-09T06:41:03.983Z,994.43
2018-05-09T06:41:44.697Z,994.41
2018-05-09T06:42:25.043Z,994.42
2018-05-09T06:43:05.571Z,994.43
2018-05-09T06:43:46.077Z,994.41
2018-05-09T06:44:26.489Z,994.46
2018-05-09T06:45:07.001Z,994.47
2018-05-09T06:45:47.522Z,994.45
2018-05-09T06:46:28.014Z,994.47
2018-05-09T06:47:08.494Z,994.49
2018-05-09T06:47:48.964Z,994.45
2018-05-09T06:48:29.496Z,994.48
2018-05-09T06:49:09.983Z,994.52
2018-05-09T06:49:50.474Z,994.49
2018-05-09T06:50:31.014Z,994.53
2018-05-09T06:51:11.498Z,994.53
2018-05-09T06:51:52.050Z,994.52
2018-05-09T06:52:32.634Z,994.53
2018-05-09T06:53:13.103Z,994.56
2018-05-09T06:53:53.654Z,994.6
2018-05-09T06:54:34.278Z,994.59
2018-05-09T06:55:14.895Z,994.63
2018-05-09T06:55:55.450Z,994.61
2018-05-09T06:56:35.889Z,994.62
2018-05-09T06:57:16.406Z,994.66
2018-05-09T06:57:56.896Z,994.66
2018-05-09T06:58:37.351Z,994.69
2018-05-09T06:59:17.876Z,994.64
2018-05-09T06:59:58.435Z,994.71
2018-05-09T07:00:38.915Z,994.72
2018-05-09T07:01:19.373Z,994.7
2018-05-09T07:01:59.896Z,994.75
2018-05-09T07:02:40.669Z,994.74
2018-05-09T07:03:21.172Z,994.71
2018-05-09T07:04:01.688Z,994.8
2018-05-09T07:04:42.126Z,994.77
2018-05-09T07:05:22.633Z,994.78
2018-05-09T07:06:03.119Z,994.79
2018-05-09T07:06:43.988Z,994.83
2018-05-09T07:07:24.169Z,994.87
2018-05-09T07:08:04.641Z,994.87
2018-05-09T07:08:45.195Z,994.82
2018-05-09T07:09:25.710Z,994.83
2018-05-09T07:10:06.208Z,994.79
2018-05-09T07:10:46.702Z,994.82
2018-05-09T07:11:27.158Z,994.79
2018-05-09T07:12:07.736Z,994.85
2018-05-09T07:12:48.240Z,994.84
2018-05-09T07:13:28.724Z,994.86
2018-05-09T07:14:09.221Z,994.85
2018-05-09T07:14:49.698Z,994.9
2018-05-09T07:15:30.351Z,994.84
2018-05-09T07:16:10.868Z,994.87
2018-05-09T07:16:51.369Z,994.88
2018-05-09T07:17:31.878Z,994.86
2018-05-09T07:18:12.363Z,994.91
2018-05-09T07:18:52.875Z,994.85
2018-05-09T07:19:33.418Z,994.88
2018-05-09T07:20:13.877Z,994.88
2018-05-09T07:20:54.434Z,994.89
2018-05-09T07:21:34.928Z,994.92
2018-05-09T07:22:15.426Z,994.98
2018-05-09T07:22:56.074Z,994.95
2018-05-09T07:23:36.667Z,994.93
2018-05-09T07:24:17.134Z,994.92
2018-05-09T07:24:57.613Z,994.87
2018-05-09T07:25:39.088Z,994.94
2018-05-09T07:26:20.536Z,994.94
2018-05-09T07:27:00.851Z,994.96
2018-05-09T07:27:41.305Z,994.95
2018-05-09T07:28:21.818Z,994.94
2018-05-09T07:29:02.352Z,994.93
2018-05-09T07:29:42.854Z,994.87
2018-05-09T07:30:23.340Z,994.86
2018-05-09T07:31:03.826Z,994.89
2018-05-09T07:31:44.323Z,994.9
2018-05-09T07:32:24.820Z,994.9
2018-05-09T07:33:05.354Z,994.85
2018-05-09T07:33:45.831Z,994.86
2018-05-09T07:34:26.336Z,994.82
2018-05-09T07:35:06.835Z,994.87
2018-05-09T07:35:47.311Z,994.83
2018-05-09T07:36:27.779Z,994.85
2018-05-09T07:37:08.304Z,994.84
2018-05-09T07:37:48.975Z,994.85
2018-05-09T07:38:29.526Z,994.83
2018-05-09T07:39:10.028Z,994.89
2018-05-09T07:39:50.484Z,994.91
2018-05-09T07:40:31.222Z,994.93
2018-05-09T07:41:11.543Z,994.89
2018-05-09T07:41:51.966Z,994.89
2018-05-09T07:42:32.481Z,994.89
2018-05-09T07:43:12.974Z,994.86
2018-05-09T07:43:53.479Z,994.85
2018-05-09T07:44:34.007Z,994.9
2018-05-09T07:45:14.524Z,994.91
2018-05-09T07:45:55.006Z,994.9
2018-05-09T07:46:35.454Z,994.81
2018-05-09T07:47:15.967Z,994.83
2018-05-09T07:47:56.555Z,994.88
2018-05-09T07:48:36.936Z,994.88
2018-05-09T07:49:17.493Z,994.82
2018-05-09T07:49:58.008Z,994.83
2018-05-09T07:50:38.484Z,994.84
2018-05-09T07:51:19.153Z,994.83
2018-05-09T07:51:59.695Z,994.81
2018-05-09T07:52:40.216Z,994.8
2018-05-09T07:53:20.667Z,994.89
2018-05-09T07:54:01.218Z,994.9
2018-05-09T07:54:41.743Z,994.79
2018-05-09T07:55:22.212Z,994.89
2018-05-09T07:56:02.751Z,994.84
2018-05-09T07:56:43.261Z,994.88
2018-05-09T07:57:23.768Z,994.83
2018-05-09T07:58:04.227Z,994.86
2018-05-09T07:58:44.717Z,994.87
2018-05-09T07:59:25.179Z,994.82
2018-05-09T08:00:05.711Z,994.83
2018-05-09T08:00:46.368Z,994.85
2018-05-09T08:01:26.810Z,994.8
2018-05-09T08:02:07.303Z,994.8
2018-05-09T08:02:47.799Z,994.85
2018-05-09T08:03:28.306Z,994.83
2018-05-09T08:04:08.804Z,994.84
2018-05-09T08:04:49.311Z,994.81
2018-05-09T08:05:29.815Z,994.85
2018-05-09T08:06:10.370Z,994.83
2018-05-09T08:06:50.882Z,994.81
2018-05-09T08:07:31.419Z,994.83
2018-05-09T08:08:12.079Z,994.83
2018-05-09T08:08:52.585Z,994.87
2018-05-09T08:09:33.060Z,994.85
2018-05-09T08:10:13.603Z,994.87
2018-05-09T08:10:54.049Z,994.82
2018-05-09T08:11:34.618Z,994.83
2018-05-09T08:12:15.088Z,994.84
2018-05-09T08:12:55.585Z,994.79
2018-05-09T08:13:36.053Z,994.8
2018-05-09T08:14:16.572Z,994.82
2018-05-09T08:14:57.204Z,994.77
2018-05-09T08:15:37.766Z,994.77
2018-05-09T08:16:18.315Z,994.77
2018-05-09T08:16:58.778Z,994.78
2018-05-09T08:17:39.279Z,994.74
2018-05-09T08:18:19.763Z,994.75
2018-05-09T08:19:00.259Z,994.72
2018-05-09T08:19:40.828Z,994.74
2018-05-09T08:20:21.284Z,994.7
2018-05-09T08:21:01.836Z,994.7
2018-05-09T08:21:42.326Z,994.75
2018-05-09T08:22:22.920Z,994.68
2018-05-09T08:23:03.457Z,994.68
2018-05-09T08:23:44.019Z,994.65
2018-05-09T08:24:24.476Z,994.69
2018-05-09T08:25:04.992Z,994.63
2018-05-09T08:25:45.560Z,994.65
2018-05-09T08:26:25.995Z,994.63
2018-05-09T08:27:06.587Z,994.68
2018-05-09T08:27:47.084Z,994.7
2018-05-09T08:28:27.673Z,994.66